createdAt,value
2023-02-12T00:00:30.983Z,6.60
2023-02-12T00:03:35.070Z,6.64
2023-02-12T00:06:39.337Z,6.60
2023-02-12T00:09:42.404Z,6.65
2023-02-12T00:12:45.305Z,6.64
2023-02-12T00:15:48.271Z,6.67
2023-02-12T00:18:54.862Z,6.59
2023-02-12T00:21:57.629Z,6.69
2023-02-12T00:25:00.330Z,6.69
2023-02-12T00:28:03.806Z,6.69
2023-02-12T00:31:08.585Z,6.73
2023-02-12T00:34:12.709Z,6.64
2023-02-12T00:37:16.056Z,6.66
2023-02-12T00:40:19.065Z,6.64
2023-02-12T00:43:21.904Z,6.65
2023-02-12T00:46:24.953Z,6.66
2023-02-12T00:49:29.362Z,6.67
2023-02-12T00:52:32.133Z,6.66
2023-02-12T00:55:35.223Z,6.61
2023-02-12T00:58:37.936Z,6.61
2023-02-12T01:01:41.253Z,6.59
2023-02-12T01:04:46.095Z,6.54
2023-02-12T01:07:50.733Z,6.63
2023-02-12T01:10:59.221Z,6.63
2023-02-12T01:14:02.295Z,6.65
2023-02-12T01:17:05.028Z,6.65
2023-02-12T01:20:12.454Z,6.57
2023-02-12T01:23:15.165Z,6.63
2023-02-12T01:26:19.826Z,6.54
2023-02-12T01:29:22.558Z,6.60
2023-02-12T01:32:25.366Z,6.56
2023-02-12T01:35:29.427Z,6.57
2023-02-12T01:38:32.406Z,6.49
2023-02-12T01:41:37.582Z,6.49
2023-02-12T01:44:44.963Z,6.48
2023-02-12T01:47:47.830Z,6.44
2023-02-12T01:50:54.184Z,6.44
2023-02-12T01:54:00.215Z,6.47
2023-02-12T01:57:06.025Z,6.48
2023-02-12T02:00:12.421Z,6.53
2023-02-12T02:03:15.472Z,6.48
2023-02-12T02:06:23.678Z,6.44
2023-02-12T02:09:27.132Z,6.47
2023-02-12T02:12:49.507Z,6.49
2023-02-12T02:15:58.447Z,6.53
2023-02-12T02:19:09.106Z,6.47
2023-02-12T02:22:22.762Z,6.45
2023-02-12T02:25:58.107Z,6.44
2023-02-12T02:29:15.450Z,6.46
2023-02-12T02:32:25.710Z,6.45
2023-02-12T02:35:33.454Z,6.44
2023-02-12T02:38:43.357Z,6.45
2023-02-12T02:41:51.095Z,6.42
2023-02-12T02:44:55.854Z,6.35
2023-02-12T02:48:05.805Z,6.43
2023-02-12T02:51:13.071Z,6.47
2023-02-12T02:54:21.429Z,6.40
2023-02-12T02:57:29.283Z,6.48
2023-02-12T03:00:38.773Z,6.51
2023-02-12T03:03:50.248Z,6.53
2023-02-12T03:06:57.445Z,6.51
2023-02-12T03:10:03.364Z,6.49
2023-02-12T03:13:10.282Z,6.53
2023-02-12T03:16:17.982Z,6.56
2023-02-12T03:19:26.026Z,6.55
2023-02-12T03:22:32.607Z,6.55
2023-02-12T03:25:39.314Z,6.57
2023-02-12T03:28:42.244Z,6.57
2023-02-12T03:31:56.797Z,6.57
2023-02-12T03:35:13.531Z,6.57
2023-02-12T03:38:22.970Z,6.56
2023-02-12T03:41:32.140Z,6.57
2023-02-12T03:44:48.869Z,6.59
2023-02-12T03:48:02.333Z,6.57
2023-02-12T03:51:16.022Z,6.56
2023-02-12T03:54:21.380Z,6.56
2023-02-12T03:57:30.658Z,6.55
2023-02-12T04:00:33.551Z,6.53
2023-02-12T04:03:36.419Z,6.49
2023-02-12T04:06:41.296Z,6.46
2023-02-12T04:09:44.537Z,6.53
2023-02-12T04:12:55.818Z,6.57
2023-02-12T04:16:08.967Z,6.56
2023-02-12T04:19:15.680Z,6.56
2023-02-12T04:22:36.147Z,6.54
2023-02-12T04:25:51.774Z,6.52
2023-02-12T04:29:09.215Z,6.53
2023-02-12T04:32:17.460Z,6.50
2023-02-12T04:35:25.306Z,6.51
2023-02-12T04:38:34.011Z,6.53
2023-02-12T04:41:36.853Z,6.50
2023-02-12T04:44:41.161Z,6.44
2023-02-12T04:47:43.956Z,6.42
2023-02-12T04:50:46.716Z,6.39
2023-02-12T04:53:51.061Z,6.41
2023-02-12T04:56:53.828Z,6.43
2023-02-12T04:59:56.568Z,6.46
2023-02-12T05:02:59.571Z,6.49
2023-02-12T05:06:04.458Z,6.43
2023-02-12T05:09:09.781Z,6.33
2023-02-12T05:12:12.501Z,6.32
2023-02-12T05:15:15.396Z,6.33
2023-02-12T05:18:18.085Z,6.32
2023-02-12T05:21:20.759Z,6.30
2023-02-12T05:24:24.921Z,6.31
2023-02-12T05:27:27.587Z,6.24
2023-02-12T05:30:30.388Z,6.23
2023-02-12T05:33:33.566Z,6.26
2023-02-12T05:36:36.418Z,6.25
2023-02-12T05:39:40.746Z,6.24
2023-02-12T05:42:43.453Z,6.22
2023-02-12T05:45:46.111Z,6.23
2023-02-12T05:48:49.060Z,6.23
2023-02-12T05:51:51.869Z,6.25
2023-02-12T05:54:55.917Z,6.25
2023-02-12T05:57:58.608Z,6.23
2023-02-12T06:01:01.293Z,6.21
2023-02-12T06:04:05.743Z,6.18
2023-02-12T06:07:08.450Z,6.20
2023-02-12T06:10:12.891Z,6.19
2023-02-12T06:13:15.554Z,6.21
2023-02-12T06:16:21.020Z,6.21
2023-02-12T06:19:24.417Z,6.23
2023-02-12T06:22:28.482Z,6.26
2023-02-12T06:25:32.619Z,6.26
2023-02-12T06:28:35.734Z,6.26
2023-02-12T06:31:39.253Z,6.25
2023-02-12T06:34:42.304Z,6.24
2023-02-12T06:37:45.141Z,6.23
2023-02-12T06:40:52.020Z,6.24
2023-02-12T06:43:54.798Z,6.26
2023-02-12T06:46:58.773Z,6.29
2023-02-12T06:50:01.729Z,6.30
2023-02-12T06:53:04.499Z,6.29
2023-02-12T06:56:11.457Z,6.30
2023-02-12T06:59:16.227Z,6.31
2023-02-12T07:02:18.957Z,6.35
2023-02-12T07:05:21.833Z,6.35
2023-02-12T07:08:24.630Z,6.44
2023-02-12T07:11:31.126Z,6.46
2023-02-12T07:14:33.887Z,6.44
2023-02-12T07:17:36.715Z,6.58
2023-02-12T07:20:39.546Z,6.64
2023-02-12T07:23:42.654Z,6.66
2023-02-12T07:26:46.793Z,6.73
2023-02-12T07:29:49.518Z,6.77
2023-02-12T07:32:52.165Z,6.82
2023-02-12T07:35:55.110Z,6.89
2023-02-12T07:38:59.285Z,6.97
2023-02-12T07:42:03.565Z,7.06
2023-02-12T07:45:07.741Z,7.12
2023-02-12T07:48:10.603Z,7.17
2023-02-12T07:51:16.048Z,7.18
2023-02-12T07:54:18.890Z,7.27
2023-02-12T07:57:22.952Z,7.32
2023-02-12T08:00:25.822Z,7.41
2023-02-12T08:03:29.647Z,7.45
2023-02-12T08:06:34.241Z,7.55
2023-02-12T08:09:37.012Z,7.57
2023-02-12T08:12:41.024Z,7.63
2023-02-12T08:15:43.694Z,7.66
2023-02-12T08:18:46.921Z,7.71
2023-02-12T08:21:50.782Z,7.75
2023-02-12T08:24:53.515Z,7.83
2023-02-12T08:27:57.676Z,7.89
2023-02-12T08:31:02.214Z,7.97
2023-02-12T08:34:05.955Z,7.99
2023-02-12T08:37:08.694Z,8.02
2023-02-12T08:40:13.854Z,8.07
2023-02-12T08:43:17.925Z,8.10
2023-02-12T08:46:23.423Z,8.12
2023-02-12T08:49:28.673Z,8.18
2023-02-12T08:52:31.347Z,8.24
2023-02-12T08:55:34.150Z,8.33
2023-02-12T08:58:38.996Z,8.43
2023-02-12T09:01:42.833Z,8.54
2023-02-12T09:04:45.738Z,8.65
2023-02-12T09:07:49.277Z,8.76
2023-02-12T09:10:51.997Z,8.87
2023-02-12T09:13:56.064Z,8.97
2023-02-12T09:16:58.747Z,9.05
2023-02-12T09:20:02.678Z,9.13
2023-02-12T09:23:05.859Z,9.19
2023-02-12T09:26:10.780Z,9.32
2023-02-12T09:29:14.930Z,9.43
2023-02-12T09:32:17.663Z,9.50
2023-02-12T09:35:20.582Z,9.57
2023-02-12T09:38:23.311Z,9.71
2023-02-12T09:41:45.382Z,9.83
2023-02-12T09:44:57.644Z,9.93
2023-02-12T09:48:13.645Z,9.96
2023-02-12T09:51:16.551Z,10.06
2023-02-12T09:54:22.103Z,10.08
2023-02-12T09:57:29.458Z,10.28
2023-02-12T10:00:33.782Z,10.36
2023-02-12T10:03:36.595Z,10.42
2023-02-12T10:06:50.678Z,10.47
2023-02-12T10:10:09.867Z,10.54
2023-02-12T10:13:25.132Z,10.54
2023-02-12T10:16:43.916Z,10.69
2023-02-12T10:20:19.641Z,10.80
2023-02-12T10:24:00.827Z,10.93
2023-02-12T10:27:11.864Z,11.03
2023-02-12T10:30:22.374Z,11.17
2023-02-12T10:33:32.867Z,11.26
2023-02-12T10:36:43.176Z,11.28
2023-02-12T10:39:51.605Z,11.30
2023-02-12T10:42:54.711Z,11.38
2023-02-12T10:45:58.178Z,11.47
2023-02-12T10:49:03.462Z,11.55
2023-02-12T10:52:14.980Z,11.63
2023-02-12T10:55:36.820Z,11.64
2023-02-12T10:58:41.865Z,11.71
2023-02-12T11:01:48.527Z,11.80
2023-02-12T11:04:54.301Z,11.90
2023-02-12T11:07:57.576Z,11.99
2023-02-12T11:11:11.151Z,12.10
2023-02-12T11:14:20.553Z,12.16
2023-02-12T11:17:29.758Z,12.26
2023-02-12T11:20:41.120Z,12.42
2023-02-12T11:23:45.299Z,12.38
2023-02-12T11:26:48.034Z,12.54
2023-02-12T11:30:14.186Z,12.46
2023-02-12T11:33:22.822Z,12.42
2023-02-12T11:36:29.772Z,12.28
2023-02-12T11:39:39.490Z,12.35
2023-02-12T11:42:43.469Z,12.31
2023-02-12T11:45:49.748Z,12.30
2023-02-12T11:48:54.341Z,12.31
2023-02-12T11:52:01.236Z,12.35
2023-02-12T11:55:07.859Z,12.38
2023-02-12T11:58:17.778Z,12.42
2023-02-12T12:01:23.619Z,12.41
2023-02-12T12:04:31.734Z,12.52
2023-02-12T12:07:40.080Z,12.52
2023-02-12T12:10:48.302Z,12.42
2023-02-12T12:13:58.669Z,12.54
2023-02-12T12:17:24.287Z,12.76
2023-02-12T12:20:32.042Z,12.74
2023-02-12T12:23:41.291Z,12.86
2023-02-12T12:26:50.231Z,12.90
2023-02-12T12:30:06.693Z,12.95
2023-02-12T12:33:18.360Z,12.99
2023-02-12T12:36:51.861Z,13.02
2023-02-12T12:40:09.111Z,13.00
2023-02-12T12:43:19.695Z,12.92
2023-02-12T12:46:47.851Z,12.97
2023-02-12T12:50:18.830Z,12.92
2023-02-12T12:53:35.947Z,12.89
2023-02-12T12:56:59.429Z,12.97
2023-02-12T13:00:21.126Z,12.97
2023-02-12T13:03:40.784Z,13.20
2023-02-12T13:06:54.416Z,13.29
2023-02-12T13:10:20.705Z,13.43
2023-02-12T13:13:34.008Z,13.32
2023-02-12T13:16:41.630Z,13.11
2023-02-12T13:19:54.369Z,13.06
2023-02-12T13:23:02.186Z,12.95
2023-02-12T13:26:12.664Z,12.75
2023-02-12T13:29:21.880Z,12.75
2023-02-12T13:32:29.609Z,12.76
2023-02-12T13:35:35.162Z,12.79
2023-02-12T13:38:41.465Z,12.78
2023-02-12T13:41:57.462Z,12.83
2023-02-12T13:45:18.239Z,12.94
2023-02-12T13:48:36.876Z,13.00
2023-02-12T13:51:44.985Z,13.16
2023-02-12T13:54:58.083Z,13.32
2023-02-12T13:58:40.799Z,13.41
2023-02-12T14:01:49.324Z,13.52
2023-02-12T14:04:57.193Z,13.62
2023-02-12T14:08:05.563Z,13.63
2023-02-12T14:11:10.524Z,13.60
2023-02-12T14:14:13.700Z,13.59
2023-02-12T14:17:44.262Z,13.65
2023-02-12T14:20:46.978Z,13.76
2023-02-12T14:23:50.762Z,13.85
2023-02-12T14:26:54.127Z,13.95
2023-02-12T14:30:26.992Z,13.97
2023-02-12T14:33:31.122Z,13.93
2023-02-12T14:36:40.790Z,13.86
2023-02-12T14:39:43.661Z,13.78
2023-02-12T14:42:56.863Z,13.68
2023-02-12T14:46:20.973Z,13.61
2023-02-12T14:49:28.205Z,13.39
2023-02-12T14:52:33.492Z,13.13
2023-02-12T14:55:36.689Z,12.90
2023-02-12T14:58:40.894Z,12.69
2023-02-12T15:01:44.434Z,12.56
2023-02-12T15:04:49.663Z,12.43
2023-02-12T15:07:56.165Z,12.27
2023-02-12T15:11:07.766Z,12.18
2023-02-12T15:14:17.686Z,12.21
2023-02-12T15:17:23.254Z,12.19
2023-02-12T15:20:35.715Z,12.11
2023-02-12T15:23:41.394Z,12.22
2023-02-12T15:26:48.253Z,12.19
2023-02-12T15:29:53.593Z,12.11
2023-02-12T15:32:57.754Z,11.99
2023-02-12T15:36:02.878Z,12.01
2023-02-12T15:39:09.713Z,11.90
2023-02-12T15:42:26.818Z,11.83
2023-02-12T15:45:30.990Z,11.84
2023-02-12T15:48:35.947Z,11.76
2023-02-12T15:51:42.237Z,11.66
2023-02-12T15:54:46.112Z,11.62
2023-02-12T15:57:51.457Z,11.54
2023-02-12T16:00:56.980Z,11.43
2023-02-12T16:04:03.320Z,11.29
2023-02-12T16:07:09.122Z,11.22
2023-02-12T16:10:15.716Z,11.23
2023-02-12T16:13:21.922Z,11.21
2023-02-12T16:16:28.086Z,11.17
2023-02-12T16:19:33.031Z,11.09
2023-02-12T16:22:39.656Z,11.05
2023-02-12T16:25:42.505Z,11.05
2023-02-12T16:28:48.374Z,10.93
2023-02-12T16:31:56.182Z,10.89
2023-02-12T16:35:02.310Z,10.90
2023-02-12T16:38:47.454Z,11.06
2023-02-12T16:41:56.358Z,11.01
2023-02-12T16:44:59.130Z,10.94
2023-02-12T16:48:04.938Z,10.83
2023-02-12T16:51:07.941Z,10.71
2023-02-12T16:54:31.238Z,10.59
2023-02-12T16:57:34.256Z,10.55
2023-02-12T17:00:37.059Z,10.56
2023-02-12T17:03:40.972Z,10.54
2023-02-12T17:06:44.092Z,10.44
2023-02-12T17:09:48.181Z,10.37
2023-02-12T17:12:53.162Z,10.41
2023-02-12T17:15:58.408Z,10.33
2023-02-12T17:19:02.212Z,10.21
2023-02-12T17:22:06.146Z,10.23
2023-02-12T17:25:11.504Z,10.43
2023-02-12T17:28:14.360Z,10.36
2023-02-12T17:31:17.241Z,10.22
2023-02-12T17:34:20.976Z,10.11
2023-02-12T17:37:25.400Z,10.29
2023-02-12T17:40:29.547Z,10.17
2023-02-12T17:43:32.319Z,10.18
2023-02-12T17:46:35.095Z,10.12
2023-02-12T17:49:39.851Z,10.32
2023-02-12T17:52:42.864Z,10.07
2023-02-12T17:55:48.106Z,9.95
2023-02-12T17:58:50.958Z,9.90
2023-02-12T18:01:54.144Z,9.84
2023-02-12T18:04:56.952Z,9.89
2023-02-12T18:07:59.783Z,9.81
2023-02-12T18:11:07.764Z,9.83
2023-02-12T18:14:12.444Z,9.80
2023-02-12T18:17:15.105Z,9.83
2023-02-12T18:20:17.981Z,9.82
2023-02-12T18:23:20.661Z,9.86
2023-02-12T18:26:24.721Z,9.86
2023-02-12T18:29:27.511Z,9.79
2023-02-12T18:32:30.221Z,9.79
2023-02-12T18:35:33.259Z,9.74
2023-02-12T18:38:37.137Z,9.89
2023-02-12T18:41:41.349Z,9.84
2023-02-12T18:44:44.081Z,9.91
2023-02-12T18:47:47.069Z,9.73
2023-02-12T18:50:51.752Z,9.77
2023-02-12T18:53:56.030Z,9.73
2023-02-12T18:57:00.342Z,9.74
2023-02-12T19:00:04.937Z,9.87
2023-02-12T19:03:07.826Z,9.76
2023-02-12T19:06:10.936Z,9.72
2023-02-12T19:09:16.584Z,9.62
2023-02-12T19:12:20.720Z,9.65
2023-02-12T19:15:23.488Z,9.60
2023-02-12T19:18:26.330Z,9.63
2023-02-12T19:21:29.166Z,9.63
2023-02-12T19:24:45.569Z,9.65
2023-02-12T19:27:50.170Z,9.58
2023-02-12T19:30:52.992Z,9.59
2023-02-12T19:33:59.183Z,9.73
2023-02-12T19:37:02.140Z,9.69
2023-02-12T19:40:05.126Z,9.68
2023-02-12T19:43:09.197Z,9.57
2023-02-12T19:46:13.555Z,9.55
2023-02-12T19:49:19.784Z,9.63
2023-02-12T19:52:22.461Z,9.53
2023-02-12T19:55:25.174Z,9.60
2023-02-12T19:58:31.176Z,9.63
2023-02-12T20:01:35.217Z,9.54
2023-02-12T20:04:37.931Z,9.69
2023-02-12T20:07:40.643Z,9.56
2023-02-12T20:10:43.365Z,9.51
2023-02-12T20:13:47.812Z,9.50
2023-02-12T20:16:51.879Z,9.53
2023-02-12T20:19:54.640Z,9.52
2023-02-12T20:22:57.487Z,9.51
2023-02-12T20:26:00.349Z,9.49
2023-02-12T20:29:05.759Z,9.46
2023-02-12T20:32:08.783Z,9.44
2023-02-12T20:35:11.869Z,9.45
2023-02-12T20:38:15.358Z,9.42
2023-02-12T20:41:18.113Z,9.39
2023-02-12T20:44:23.248Z,9.42
2023-02-12T20:47:28.805Z,9.38
2023-02-12T20:50:32.045Z,9.31
2023-02-12T20:53:35.049Z,9.28
2023-02-12T20:56:38.698Z,9.31
2023-02-12T20:59:42.884Z,9.23
2023-02-12T21:02:45.915Z,9.20
2023-02-12T21:05:48.691Z,9.18
2023-02-12T21:08:52.973Z,9.15
2023-02-12T21:11:58.178Z,9.05
2023-02-12T21:15:03.874Z,8.99
2023-02-12T21:18:06.692Z,8.97
2023-02-12T21:21:16.380Z,8.93
2023-02-12T21:24:21.622Z,8.77
2023-02-12T21:27:24.473Z,8.80
2023-02-12T21:30:29.266Z,8.77
2023-02-12T21:33:32.077Z,8.79
2023-02-12T21:36:37.392Z,8.87
2023-02-12T21:39:40.093Z,8.72
2023-02-12T21:42:42.782Z,8.86
2023-02-12T21:45:52.712Z,8.65
2023-02-12T21:48:55.924Z,8.63
2023-02-12T21:52:02.528Z,8.66
2023-02-12T21:55:05.513Z,8.64
2023-02-12T21:58:08.221Z,8.66
2023-02-12T22:01:13.972Z,8.55
2023-02-12T22:04:18.289Z,8.66
2023-02-12T22:07:21.020Z,8.62
2023-02-12T22:10:23.674Z,8.57
2023-02-12T22:13:26.343Z,8.58
2023-02-12T22:16:30.456Z,8.52
2023-02-12T22:19:33.297Z,8.49
2023-02-12T22:22:36.200Z,8.48
2023-02-12T22:25:39.304Z,8.46
2023-02-12T22:28:43.326Z,8.43
2023-02-12T22:31:48.340Z,8.38
2023-02-12T22:34:51.128Z,8.37
2023-02-12T22:37:53.801Z,8.37
2023-02-12T22:40:56.762Z,8.40
2023-02-12T22:44:00.118Z,8.44
2023-02-12T22:47:05.282Z,8.41
2023-02-12T22:50:08.799Z,8.44
2023-02-12T22:53:11.477Z,8.43
2023-02-12T22:56:14.348Z,8.35
2023-02-12T22:59:17.286Z,8.40
2023-02-12T23:02:21.604Z,8.29
2023-02-12T23:05:24.296Z,8.31
2023-02-12T23:08:27.047Z,8.29
2023-02-12T23:11:31.669Z,8.29
2023-02-12T23:14:36.093Z,8.26
2023-02-12T23:17:40.163Z,8.27
2023-02-12T23:20:42.825Z,8.23
2023-02-12T23:23:45.516Z,8.23
2023-02-12T23:26:48.169Z,8.26
2023-02-12T23:29:50.833Z,8.28
2023-02-12T23:32:55.139Z,8.22
2023-02-12T23:35:57.835Z,8.16
2023-02-12T23:39:00.505Z,8.17
2023-02-12T23:42:03.762Z,8.17
2023-02-12T23:45:06.829Z,8.10
2023-02-12T23:48:11.076Z,8.14
2023-02-12T23:51:13.832Z,8.15
2023-02-12T23:54:16.597Z,8.17
2023-02-12T23:57:19.277Z,8.19
